Rollo, Illinois
Current Conditions -  °F | °C
As of 2:55 PM on Friday 19 Dec 2014 (Local Time) from KVYS Reporting Station
Overcast Overcast  
Wind Chill: 32°   Ceiling: 2300
Heat Index: 32°   Visibility: 10mi
Dew Point: 22°   Wind: 0mph
Humidity: 67%   Direction: NA
Pressure: 30.3"   Gusts: NA
Location:  41.5869°N, 88.887°W
Report Text: KVYS 192055Z AUTO 00000KT 10SM OVC023 00/M05 A3030 RMK AO2 T10011055
Loading
Personal Weather Stations






























Interactive Weather Map New forecast layout! Learn more

10-Day Weather Forecast

Advertisements
Track Severe Weather on mobile